Thorco Attraction — V2BS1 — position and weather

sailwx.info

Track history (hours):
 
Tides and Currents Weather Stations Pressure Air Temp Water Temp Dewpoint Dewpoint Depression Visibility Wind Speed Wind Dir Waves Ship Positions

Thorco Attraction

Last reported at 2015-Jan-27 11:25 UTC. Time now 2015-Jan-30 11:00 UTC.
Position N 31°06' E 122°20'.

Length 132 m; draft 7 m.

Type: Cargo ship. MMSI: 304908000.

Date/timePositionNaut miles runAvg speedWind from/ knotsBaromVisibWave heightAir tempDewpointWater temp
2015-Jan-27 11:25N 31°06' E 122°20'1011.4
2015-Jan-27 10:33N 31°11' E 122°10'1111.2
2015-Jan-27 09:33N 31°15' E 121°58'1110.8
2015-Jan-27 08:33N 31°18' E 121°46'7 7.2
2015-Jan-27 07:33N 31°21' E 121°39'6 6.0
2015-Jan-27 06:34N 31°24' E 121°32'8 8.2
2015-Jan-27 05:33N 31°30' E 121°25'1111.2
2015-Jan-27 04:34N 31°37' E 121°16'2 2.4
2015-Jan-27 03:32N 31°39' E 121°13'0 0.0
2015-Jan-27 02:32N 31°39' E 121°13'0 0.0
2015-Jan-27 01:32N 31°39' E 121°13'0 0.0
2015-Jan-27 00:32N 31°39' E 121°13'0 0.0
2015-Jan-26 23:32N 31°39' E 121°13'0 0.0
2015-Jan-26 22:29N 31°39' E 121°13'0 0.0
2015-Jan-26 21:32N 31°39' E 121°13'0 0.0
2015-Jan-26 20:32N 31°39' E 121°13'0 0.0
2015-Jan-26 19:32N 31°39' E 121°13'0 0.0
2015-Jan-26 18:17N 31°39' E 121°13'0 0.0
2015-Jan-26 17:26N 31°39' E 121°13'0 0.0
2015-Jan-26 16:32N 31°39' E 121°13'0 0.0
2015-Jan-26 15:32N 31°39' E 121°13'0 0.0
2015-Jan-26 14:29N 31°39' E 121°13'0 0.0
2015-Jan-26 13:32N 31°39' E 121°13'0 0.0
2015-Jan-26 12:32N 31°39' E 121°13'0 0.0
2015-Jan-26 11:32N 31°39' E 121°13'0 0.0
2015-Jan-26 10:29N 31°39' E 121°13'0 0.0
2015-Jan-26 09:29N 31°39' E 121°13'0 0.0
2015-Jan-26 08:32N 31°39' E 121°13'0 0.0
2015-Jan-26 07:17N 31°39' E 121°13'0 0.0
2015-Jan-26 06:32N 31°39' E 121°13'0 0.0
2015-Jan-26 05:32N 31°39' E 121°13'0 0.0
2015-Jan-26 04:32N 31°39' E 121°13'0 0.0
2015-Jan-26 03:32N 31°39' E 121°13'0 0.0
2015-Jan-26 02:29N 31°39' E 121°13'0 0.0
2015-Jan-26 01:32N 31°39' E 121°13'0 0.0
2015-Jan-26 00:29N 31°39' E 121°13'0 0.0
2015-Jan-25 23:29N 31°39' E 121°13'0 0.0
2015-Jan-25 22:32N 31°39' E 121°13'0 0.0
2015-Jan-25 21:32N 31°39' E 121°13'0 0.0
2015-Jan-25 20:29N 31°39' E 121°13'0 0.0
2015-Jan-25 19:32N 31°39' E 121°13'0 0.0
2015-Jan-25 18:32N 31°39' E 121°13'0 0.0
2015-Jan-25 17:32N 31°39' E 121°13'0 0.0
2015-Jan-25 16:26N 31°39' E 121°13'0 0.0
2015-Jan-25 15:32N 31°39' E 121°13'0 0.0
2015-Jan-25 14:32N 31°39' E 121°13'0 0.0
2015-Jan-25 13:32N 31°39' E 121°13'0 0.0
2015-Jan-25 12:32N 31°39' E 121°13'0 0.0
2015-Jan-25 11:32N 31°39' E 121°13'0 0.0
2015-Jan-25 10:32N 31°39' E 121°13'0 0.0
2015-Jan-25 09:32N 31°39' E 121°13'0 0.0
2015-Jan-25 08:32N 31°39' E 121°13'0 0.0
2015-Jan-25 07:29N 31°39' E 121°13'0 0.0
2015-Jan-25 06:26N 31°39' E 121°13'0 0.0
2015-Jan-25 05:32N 31°39' E 121°13'0 0.0
2015-Jan-25 04:32N 31°39' E 121°13'0 0.0
2015-Jan-25 03:32N 31°39' E 121°13'0 0.0
2015-Jan-25 02:32N 31°39' E 121°13'0 0.0
2015-Jan-25 01:32N 31°39' E 121°13'0 0.0
2015-Jan-25 00:32N 31°39' E 121°13'0 0.0
2015-Jan-24 23:29N 31°39' E 121°13'0 0.0
2015-Jan-24 22:32N 31°39' E 121°13'0 0.0
2015-Jan-24 21:32N 31°39' E 121°13'0 0.0
2015-Jan-24 20:32N 31°39' E 121°13'0 0.0
2015-Jan-24 19:32N 31°39' E 121°13'0 0.0
2015-Jan-24 18:32N 31°39' E 121°13'1 0.9
2015-Jan-24 17:33N 31°39' E 121°14'1 1.1
2015-Jan-24 16:29N 31°39' E 121°15'0 0.0
2015-Jan-24 15:29N 31°39' E 121°15'0 0.0
2015-Jan-24 14:29N 31°39' E 121°15'0 0.0
2015-Jan-24 13:29N 31°39' E 121°15'0 0.0
2015-Jan-24 12:26N 31°39' E 121°15'0 0.2
2015-Jan-24 11:29N 31°39' E 121°15'0 0.0
2015-Jan-24 10:32N 31°39' E 121°15'0 0.0
2015-Jan-24 09:32N 31°39' E 121°15'0 0.0
2015-Jan-24 08:32N 31°39' E 121°15'0 0.0
2015-Jan-24 07:32N 31°39' E 121°15'0 0.0
2015-Jan-24 06:29N 31°39' E 121°15'0 0.0
2015-Jan-24 05:26N 31°39' E 121°15'0 0.2
2015-Jan-24 04:29N 31°39' E 121°15'0 0.0
2015-Jan-24 03:32N 31°39' E 121°15'0 0.0
2015-Jan-24 02:32N 31°39' E 121°15'0 0.0
2015-Jan-24 01:24N 31°39' E 121°15'0 0.0
2015-Jan-24 00:32N 31°39' E 121°15'0 0.0
2015-Jan-23 23:32N 31°39' E 121°15'0 0.2
2015-Jan-23 22:32N 31°39' E 121°15'0 0.0
2015-Jan-23 21:32N 31°39' E 121°15'0 0.0
2015-Jan-23 20:29N 31°39' E 121°15'0 0.0
2015-Jan-23 19:26N 31°39' E 121°15'0 0.0
2015-Jan-23 18:32N 31°39' E 121°15'0 0.0
2015-Jan-23 17:29N 31°39' E 121°15'0 0.2
2015-Jan-23 16:29N 31°39' E 121°15'0 0.1
2015-Jan-23 15:29N 31°39' E 121°15'0 0.0
2015-Jan-23 14:32N 31°39' E 121°15'0 0.0
2015-Jan-23 13:23N 31°39' E 121°15'0 0.1
2015-Jan-23 12:31N 31°38' E 121°15'0 0.2
2015-Jan-23 11:30N 31°39' E 121°15'0 0.1
2015-Jan-23 10:33N 31°39' E 121°15'0 0.1
2015-Jan-23 09:27N 31°39' E 121°15'0 0.0
2015-Jan-23 08:33N 31°39' E 121°15'2 2.3
2015-Jan-23 07:33N 31°37' E 121°17'1312.5
2015-Jan-23 06:33N 31°28' E 121°27'6 6.1
2015-Jan-23 05:34N 31°24' E 121°32'3 2.9
2015-Jan-23 04:33N 31°21' E 121°31'6 5.7
2015-Jan-23 03:33N 31°15' E 121°32'5 5.2
2015-Jan-23 02:33N 31°11' E 121°28'4 3.9
2015-Jan-23 01:32N 31°07' E 121°28'0 0.0
2015-Jan-23 00:29N 31°07' E 121°28'0 0.0
2015-Jan-22 23:32N 31°07' E 121°28'0 0.0
2015-Jan-22 22:32N 31°07' E 121°28'0 0.0
2015-Jan-22 21:32N 31°07' E 121°28'0 0.0
2015-Jan-22 20:29N 31°07' E 121°28'0 0.0
2015-Jan-22 19:26N 31°07' E 121°28'0 0.0
2015-Jan-22 18:32N 31°07' E 121°28'0 0.0
2015-Jan-22 17:32N 31°07' E 121°28'0 0.0
2015-Jan-22 16:32N 31°07' E 121°28'0 0.0
2015-Jan-22 15:32N 31°07' E 121°28'0 0.0
2015-Jan-22 14:32N 31°07' E 121°28'0 0.0
2015-Jan-22 13:32N 31°07' E 121°28'0 0.0
2015-Jan-22 12:32N 31°07' E 121°28'0 0.0
2015-Jan-22 11:32N 31°07' E 121°28'0 0.0
2015-Jan-22 10:32N 31°07' E 121°28'0 0.0
2015-Jan-22 09:32N 31°07' E 121°28'0 0.0
2015-Jan-22 07:32N 31°07' E 121°28'0 0.0
2015-Jan-22 06:29N 31°07' E 121°28'0 0.0
2015-Jan-22 05:32N 31°07' E 121°28'0 0.0
2015-Jan-22 04:32N 31°07' E 121°28'0 0.0
2015-Jan-22 03:32N 31°07' E 121°28'0 0.0
2015-Jan-22 02:29N 31°07' E 121°28'0 0.0
2015-Jan-22 01:26N 31°07' E 121°28'0 0.0
2015-Jan-22 00:29N 31°07' E 121°28'0 0.0
2015-Jan-21 23:32N 31°07' E 121°28'0 0.0
2015-Jan-21 22:50N 31°07' E 121°28'0 0.1
2015-Jan-21 22:44N 31°07' E 121°28'0 0.0
2015-Jan-21 22:32N 31°07' E 121°28'0 0.0
2015-Jan-21 21:32N 31°07' E 121°28'0 0.0
2015-Jan-21 20:32N 31°07' E 121°28'0 0.0
2015-Jan-21 19:32N 31°07' E 121°28'0 0.0
2015-Jan-21 18:32N 31°07' E 121°28'0 0.0
2015-Jan-21 17:29N 31°07' E 121°28'0 0.0
2015-Jan-21 16:32N 31°07' E 121°28'0 0.0
2015-Jan-21 15:32N 31°07' E 121°28'0 0.0
2015-Jan-21 14:32N 31°07' E 121°28'0 0.0
2015-Jan-21 13:29N 31°07' E 121°28'0 0.0
2015-Jan-21 12:29N 31°07' E 121°28'0 0.0
2015-Jan-21 11:32N 31°07' E 121°28'0 0.0
2015-Jan-21 10:32N 31°07' E 121°28'0 0.0
2015-Jan-21 09:32N 31°07' E 121°28'0 0.0
2015-Jan-21 08:29N 31°07' E 121°28'0 0.0
2015-Jan-21 07:32N 31°07' E 121°28'0 0.0
2015-Jan-21 06:32N 31°07' E 121°28'0 0.0
2015-Jan-21 05:29N 31°07' E 121°28'0 0.0
2015-Jan-21 04:29N 31°07' E 121°28'0 0.0
2015-Jan-21 03:32N 31°07' E 121°28'0 0.0
2015-Jan-21 02:32N 31°07' E 121°28'0 0.0
2015-Jan-21 01:32N 31°07' E 121°28'0 0.0
2015-Jan-21 00:32N 31°07' E 121°28'0 0.0
2015-Jan-20 23:32N 31°07' E 121°28'0 0.0
2015-Jan-20 22:32N 31°07' E 121°28'0 0.0
2015-Jan-20 21:32N 31°07' E 121°28'0 0.0
2015-Jan-20 20:32N 31°07' E 121°28'0 0.0
2015-Jan-20 19:32N 31°07' E 121°28'0 0.0
2015-Jan-20 18:32N 31°07' E 121°28'0 0.0
2015-Jan-20 17:29N 31°07' E 121°28'0 0.0
2015-Jan-20 16:32N 31°07' E 121°28'0 0.0
2015-Jan-20 15:32N 31°07' E 121°28'0 0.0
2015-Jan-20 14:32N 31°07' E 121°28'0 0.0
2015-Jan-20 13:32N 31°07' E 121°28'0 0.0
2015-Jan-20 12:31N 31°07' E 121°28'0 0.0
2015-Jan-20 11:32N 31°07' E 121°28'0 0.0
2015-Jan-20 10:32N 31°07' E 121°28'0 0.0
2015-Jan-20 09:31N 31°07' E 121°28'0 0.0
2015-Jan-20 08:32N 31°07' E 121°28'0 0.0
2015-Jan-20 07:31N 31°07' E 121°28'0 0.0
2015-Jan-20 06:28N 31°07' E 121°28'0 0.0
2015-Jan-20 05:29N 31°07' E 121°28'0 0.0
2015-Jan-20 04:32N 31°07' E 121°28'0 0.0
2015-Jan-20 03:26N 31°07' E 121°28'0 0.0
2015-Jan-20 02:20N 31°07' E 121°28'0 0.0
2015-Jan-20 01:23N 31°07' E 121°28'0 0.0
2015-Jan-19 21:31N 31°07' E 121°28'0 0.0
2015-Jan-19 20:32N 31°07' E 121°28'0 0.0
2015-Jan-19 19:32N 31°07' E 121°28'0 0.0
2015-Jan-19 18:32N 31°07' E 121°28'0 0.0
2015-Jan-19 17:32N 31°07' E 121°28'0 0.0
2015-Jan-19 16:32N 31°07' E 121°28'0 0.0
2015-Jan-19 15:32N 31°07' E 121°28'0 0.0
2015-Jan-19 14:31N 31°07' E 121°28'0 0.0
2015-Jan-19 13:32N 31°07' E 121°28'0 0.0
2015-Jan-19 12:31N 31°07' E 121°28'0 0.0
2015-Jan-19 11:33N 31°07' E 121°28'0 0.0
2015-Jan-19 10:33N 31°07' E 121°28'0 0.0
2015-Jan-19 09:33N 31°07' E 121°28'0 0.0
2015-Jan-19 08:33N 31°07' E 121°28'0 0.0
2015-Jan-19 07:33N 31°07' E 121°28'0 0.0
2015-Jan-19 06:33N 31°07' E 121°28'0 0.0
2015-Jan-19 05:33N 31°07' E 121°28'0 0.0
2015-Jan-19 04:33N 31°07' E 121°28'0 0.0
2015-Jan-19 03:33N 31°07' E 121°28'0 0.0
2015-Jan-19 02:30N 31°07' E 121°28'0 0.0
2015-Jan-19 01:33N 31°07' E 121°28'0 0.0
2015-Jan-19 00:33N 31°07' E 121°28'0 0.0
2015-Jan-18 23:30N 31°07' E 121°28'0 0.0
2015-Jan-18 22:33N 31°07' E 121°28'0 0.0
2015-Jan-18 21:30N 31°07' E 121°28'0 0.0
2015-Jan-18 20:33N 31°07' E 121°28'0 0.0
2015-Jan-18 19:33N 31°07' E 121°28'0 0.0
2015-Jan-18 18:33N 31°07' E 121°28'0 0.0
2015-Jan-18 17:31N 31°07' E 121°28'0 0.0
2015-Jan-18 16:31N 31°07' E 121°28'0 0.0
2015-Jan-18 15:28N 31°07' E 121°28'0 0.0
2015-Jan-18 14:31N 31°07' E 121°28'0 0.0
2015-Jan-18 13:31N 31°07' E 121°28'0 0.0
2015-Jan-18 12:31N 31°07' E 121°28'0 0.0
2015-Jan-18 11:28N 31°07' E 121°28'0 0.0
2015-Jan-18 10:28N 31°07' E 121°28'0 0.0
2015-Jan-18 09:22N 31°07' E 121°28'0 0.0
2015-Jan-18 08:28N 31°07' E 121°28'0 0.0
2015-Jan-18 07:10N 31°07' E 121°28'0 0.0
2015-Jan-18 06:28N 31°07' E 121°28'0 0.0
2015-Jan-18 05:28N 31°07' E 121°28'0 0.0
2015-Jan-18 04:28N 31°07' E 121°28'0 0.0
2015-Jan-18 03:28N 31°07' E 121°28'0 0.0
2015-Jan-18 02:10N 31°07' E 121°28'0 0.0
2015-Jan-18 00:31N 31°07' E 121°28'0 0.0
2015-Jan-17 23:31N 31°07' E 121°28'0 0.0
2015-Jan-17 22:31N 31°07' E 121°28'0 0.0
2015-Jan-17 21:31N 31°07' E 121°28'0 0.0
2015-Jan-17 20:31N 31°07' E 121°28'0 0.0
2015-Jan-17 19:31N 31°07' E 121°28'0 0.0
2015-Jan-17 18:31N 31°07' E 121°28'0 0.0
2015-Jan-17 17:31N 31°07' E 121°28'0 0.0
2015-Jan-17 16:31N 31°07' E 121°28'0 0.0
2015-Jan-17 15:28N 31°07' E 121°28'0 0.0
2015-Jan-17 14:25N 31°07' E 121°28'0 0.0
2015-Jan-17 13:31N 31°07' E 121°28'0 0.0
2015-Jan-17 12:31N 31°07' E 121°28'0 0.0
2015-Jan-17 11:31N 31°07' E 121°28'  
Track history (hours):
 
Tides and Currents Weather Stations Pressure Air Temp Water Temp Dewpoint Dewpoint Depression Visibility Wind Speed Wind Dir Waves Ship Positions

Thorco Attraction

Last reported at 2015-Jan-27 11:25 UTC. Time now 2015-Jan-30 11:00 UTC.
Position N 31°06' E 122°20'.

Length 132 m; draft 7 m.

Type: Cargo ship. MMSI: 304908000.

Date/timePositionNaut miles runAvg speedWind from/ knotsBaromVisibWave heightAir tempDewpointWater temp
2015-Jan-27 11:25N 31°06' E 122°20'1011.4
2015-Jan-27 10:33N 31°11' E 122°10'1111.2
2015-Jan-27 09:33N 31°15' E 121°58'1110.8
2015-Jan-27 08:33N 31°18' E 121°46'7 7.2
2015-Jan-27 07:33N 31°21' E 121°39'6 6.0
2015-Jan-27 06:34N 31°24' E 121°32'8 8.2
2015-Jan-27 05:33N 31°30' E 121°25'1111.2
2015-Jan-27 04:34N 31°37' E 121°16'2 2.4
2015-Jan-27 03:32N 31°39' E 121°13'0 0.0
2015-Jan-27 02:32N 31°39' E 121°13'0 0.0
2015-Jan-27 01:32N 31°39' E 121°13'0 0.0
2015-Jan-27 00:32N 31°39' E 121°13'0 0.0
2015-Jan-26 23:32N 31°39' E 121°13'0 0.0
2015-Jan-26 22:29N 31°39' E 121°13'0 0.0
2015-Jan-26 21:32N 31°39' E 121°13'0 0.0
2015-Jan-26 20:32N 31°39' E 121°13'0 0.0
2015-Jan-26 19:32N 31°39' E 121°13'0 0.0
2015-Jan-26 18:17N 31°39' E 121°13'0 0.0
2015-Jan-26 17:26N 31°39' E 121°13'0 0.0
2015-Jan-26 16:32N 31°39' E 121°13'0 0.0
2015-Jan-26 15:32N 31°39' E 121°13'0 0.0
2015-Jan-26 14:29N 31°39' E 121°13'0 0.0
2015-Jan-26 13:32N 31°39' E 121°13'0 0.0
2015-Jan-26 12:32N 31°39' E 121°13'0 0.0
2015-Jan-26 11:32N 31°39' E 121°13'0 0.0
2015-Jan-26 10:29N 31°39' E 121°13'0 0.0
2015-Jan-26 09:29N 31°39' E 121°13'0 0.0
2015-Jan-26 08:32N 31°39' E 121°13'0 0.0
2015-Jan-26 07:17N 31°39' E 121°13'0 0.0
2015-Jan-26 06:32N 31°39' E 121°13'0 0.0
2015-Jan-26 05:32N 31°39' E 121°13'0 0.0
2015-Jan-26 04:32N 31°39' E 121°13'0 0.0
2015-Jan-26 03:32N 31°39' E 121°13'0 0.0
2015-Jan-26 02:29N 31°39' E 121°13'0 0.0
2015-Jan-26 01:32N 31°39' E 121°13'0 0.0
2015-Jan-26 00:29N 31°39' E 121°13'0 0.0
2015-Jan-25 23:29N 31°39' E 121°13'0 0.0
2015-Jan-25 22:32N 31°39' E 121°13'0 0.0
2015-Jan-25 21:32N 31°39' E 121°13'0 0.0
2015-Jan-25 20:29N 31°39' E 121°13'0 0.0
2015-Jan-25 19:32N 31°39' E 121°13'0 0.0
2015-Jan-25 18:32N 31°39' E 121°13'0 0.0
2015-Jan-25 17:32N 31°39' E 121°13'0 0.0
2015-Jan-25 16:26N 31°39' E 121°13'0 0.0
2015-Jan-25 15:32N 31°39' E 121°13'0 0.0
2015-Jan-25 14:32N 31°39' E 121°13'0 0.0
2015-Jan-25 13:32N 31°39' E 121°13'0 0.0
2015-Jan-25 12:32N 31°39' E 121°13'0 0.0
2015-Jan-25 11:32N 31°39' E 121°13'0 0.0
2015-Jan-25 10:32N 31°39' E 121°13'0 0.0
2015-Jan-25 09:32N 31°39' E 121°13'0 0.0
2015-Jan-25 08:32N 31°39' E 121°13'0 0.0
2015-Jan-25 07:29N 31°39' E 121°13'0 0.0
2015-Jan-25 06:26N 31°39' E 121°13'0 0.0
2015-Jan-25 05:32N 31°39' E 121°13'0 0.0
2015-Jan-25 04:32N 31°39' E 121°13'0 0.0
2015-Jan-25 03:32N 31°39' E 121°13'0 0.0
2015-Jan-25 02:32N 31°39' E 121°13'0 0.0
2015-Jan-25 01:32N 31°39' E 121°13'0 0.0
2015-Jan-25 00:32N 31°39' E 121°13'0 0.0
2015-Jan-24 23:29N 31°39' E 121°13'0 0.0
2015-Jan-24 22:32N 31°39' E 121°13'0 0.0
2015-Jan-24 21:32N 31°39' E 121°13'0 0.0
2015-Jan-24 20:32N 31°39' E 121°13'0 0.0
2015-Jan-24 19:32N 31°39' E 121°13'0 0.0
2015-Jan-24 18:32N 31°39' E 121°13'1 0.9
2015-Jan-24 17:33N 31°39' E 121°14'1 1.1
2015-Jan-24 16:29N 31°39' E 121°15'0 0.0
2015-Jan-24 15:29N 31°39' E 121°15'0 0.0
2015-Jan-24 14:29N 31°39' E 121°15'0 0.0
2015-Jan-24 13:29N 31°39' E 121°15'0 0.0
2015-Jan-24 12:26N 31°39' E 121°15'0 0.2
2015-Jan-24 11:29N 31°39' E 121°15'0 0.0
2015-Jan-24 10:32N 31°39' E 121°15'0 0.0
2015-Jan-24 09:32N 31°39' E 121°15'0 0.0
2015-Jan-24 08:32N 31°39' E 121°15'0 0.0
2015-Jan-24 07:32N 31°39' E 121°15'0 0.0
2015-Jan-24 06:29N 31°39' E 121°15'0 0.0
2015-Jan-24 05:26N 31°39' E 121°15'0 0.2
2015-Jan-24 04:29N 31°39' E 121°15'0 0.0
2015-Jan-24 03:32N 31°39' E 121°15'0 0.0
2015-Jan-24 02:32N 31°39' E 121°15'0 0.0
2015-Jan-24 01:24N 31°39' E 121°15'0 0.0
2015-Jan-24 00:32N 31°39' E 121°15'0 0.0
2015-Jan-23 23:32N 31°39' E 121°15'0 0.2
2015-Jan-23 22:32N 31°39' E 121°15'0 0.0
2015-Jan-23 21:32N 31°39' E 121°15'0 0.0
2015-Jan-23 20:29N 31°39' E 121°15'0 0.0
2015-Jan-23 19:26N 31°39' E 121°15'0 0.0
2015-Jan-23 18:32N 31°39' E 121°15'0 0.0
2015-Jan-23 17:29N 31°39' E 121°15'0 0.2
2015-Jan-23 16:29N 31°39' E 121°15'0 0.1
2015-Jan-23 15:29N 31°39' E 121°15'0 0.0
2015-Jan-23 14:32N 31°39' E 121°15'0 0.0
2015-Jan-23 13:23N 31°39' E 121°15'0 0.1
2015-Jan-23 12:31N 31°38' E 121°15'0 0.2
2015-Jan-23 11:30N 31°39' E 121°15'0 0.1
2015-Jan-23 10:33N 31°39' E 121°15'0 0.1
2015-Jan-23 09:27N 31°39' E 121°15'0 0.0
2015-Jan-23 08:33N 31°39' E 121°15'2 2.3
2015-Jan-23 07:33N 31°37' E 121°17'1312.5
2015-Jan-23 06:33N 31°28' E 121°27'6 6.1
2015-Jan-23 05:34N 31°24' E 121°32'3 2.9
2015-Jan-23 04:33N 31°21' E 121°31'6 5.7
2015-Jan-23 03:33N 31°15' E 121°32'5 5.2
2015-Jan-23 02:33N 31°11' E 121°28'4 3.9
2015-Jan-23 01:32N 31°07' E 121°28'0 0.0
2015-Jan-23 00:29N 31°07' E 121°28'0 0.0
2015-Jan-22 23:32N 31°07' E 121°28'0 0.0
2015-Jan-22 22:32N 31°07' E 121°28'0 0.0
2015-Jan-22 21:32N 31°07' E 121°28'0 0.0
2015-Jan-22 20:29N 31°07' E 121°28'0 0.0
2015-Jan-22 19:26N 31°07' E 121°28'0 0.0
2015-Jan-22 18:32N 31°07' E 121°28'0 0.0
2015-Jan-22 17:32N 31°07' E 121°28'0 0.0
2015-Jan-22 16:32N 31°07' E 121°28'0 0.0
2015-Jan-22 15:32N 31°07' E 121°28'0 0.0
2015-Jan-22 14:32N 31°07' E 121°28'0 0.0
2015-Jan-22 13:32N 31°07' E 121°28'0 0.0
2015-Jan-22 12:32N 31°07' E 121°28'0 0.0
2015-Jan-22 11:32N 31°07' E 121°28'0 0.0
2015-Jan-22 10:32N 31°07' E 121°28'0 0.0
2015-Jan-22 09:32N 31°07' E 121°28'0 0.0
2015-Jan-22 07:32N 31°07' E 121°28'0 0.0
2015-Jan-22 06:29N 31°07' E 121°28'0 0.0
2015-Jan-22 05:32N 31°07' E 121°28'0 0.0
2015-Jan-22 04:32N 31°07' E 121°28'0 0.0
2015-Jan-22 03:32N 31°07' E 121°28'0 0.0
2015-Jan-22 02:29N 31°07' E 121°28'0 0.0
2015-Jan-22 01:26N 31°07' E 121°28'0 0.0
2015-Jan-22 00:29N 31°07' E 121°28'0 0.0
2015-Jan-21 23:32N 31°07' E 121°28'0 0.0
2015-Jan-21 22:50N 31°07' E 121°28'0 0.1
2015-Jan-21 22:44N 31°07' E 121°28'0 0.0
2015-Jan-21 22:32N 31°07' E 121°28'0 0.0
2015-Jan-21 21:32N 31°07' E 121°28'0 0.0
2015-Jan-21 20:32N 31°07' E 121°28'0 0.0
2015-Jan-21 19:32N 31°07' E 121°28'0 0.0
2015-Jan-21 18:32N 31°07' E 121°28'0 0.0
2015-Jan-21 17:29N 31°07' E 121°28'0 0.0
2015-Jan-21 16:32N 31°07' E 121°28'0 0.0
2015-Jan-21 15:32N 31°07' E 121°28'0 0.0
2015-Jan-21 14:32N 31°07' E 121°28'0 0.0
2015-Jan-21 13:29N 31°07' E 121°28'0 0.0
2015-Jan-21 12:29N 31°07' E 121°28'0 0.0
2015-Jan-21 11:32N 31°07' E 121°28'0 0.0
2015-Jan-21 10:32N 31°07' E 121°28'0 0.0
2015-Jan-21 09:32N 31°07' E 121°28'0 0.0
2015-Jan-21 08:29N 31°07' E 121°28'0 0.0
2015-Jan-21 07:32N 31°07' E 121°28'0 0.0
2015-Jan-21 06:32N 31°07' E 121°28'0 0.0
2015-Jan-21 05:29N 31°07' E 121°28'0 0.0
2015-Jan-21 04:29N 31°07' E 121°28'0 0.0
2015-Jan-21 03:32N 31°07' E 121°28'0 0.0
2015-Jan-21 02:32N 31°07' E 121°28'0 0.0
2015-Jan-21 01:32N 31°07' E 121°28'0 0.0
2015-Jan-21 00:32N 31°07' E 121°28'0 0.0
2015-Jan-20 23:32N 31°07' E 121°28'0 0.0
2015-Jan-20 22:32N 31°07' E 121°28'0 0.0
2015-Jan-20 21:32N 31°07' E 121°28'0 0.0
2015-Jan-20 20:32N 31°07' E 121°28'0 0.0
2015-Jan-20 19:32N 31°07' E 121°28'0 0.0
2015-Jan-20 18:32N 31°07' E 121°28'0 0.0
2015-Jan-20 17:29N 31°07' E 121°28'0 0.0
2015-Jan-20 16:32N 31°07' E 121°28'0 0.0
2015-Jan-20 15:32N 31°07' E 121°28'0 0.0
2015-Jan-20 14:32N 31°07' E 121°28'0 0.0
2015-Jan-20 13:32N 31°07' E 121°28'0 0.0
2015-Jan-20 12:31N 31°07' E 121°28'0 0.0
2015-Jan-20 11:32N 31°07' E 121°28'0 0.0
2015-Jan-20 10:32N 31°07' E 121°28'0 0.0
2015-Jan-20 09:31N 31°07' E 121°28'0 0.0
2015-Jan-20 08:32N 31°07' E 121°28'0 0.0
2015-Jan-20 07:31N 31°07' E 121°28'0 0.0
2015-Jan-20 06:28N 31°07' E 121°28'0 0.0
2015-Jan-20 05:29N 31°07' E 121°28'0 0.0
2015-Jan-20 04:32N 31°07' E 121°28'0 0.0
2015-Jan-20 03:26N 31°07' E 121°28'0 0.0
2015-Jan-20 02:20N 31°07' E 121°28'0 0.0
2015-Jan-20 01:23N 31°07' E 121°28'0 0.0
2015-Jan-19 21:31N 31°07' E 121°28'0 0.0
2015-Jan-19 20:32N 31°07' E 121°28'0 0.0
2015-Jan-19 19:32N 31°07' E 121°28'0 0.0
2015-Jan-19 18:32N 31°07' E 121°28'0 0.0
2015-Jan-19 17:32N 31°07' E 121°28'0 0.0
2015-Jan-19 16:32N 31°07' E 121°28'0 0.0
2015-Jan-19 15:32N 31°07' E 121°28'0 0.0
2015-Jan-19 14:31N 31°07' E 121°28'0 0.0
2015-Jan-19 13:32N 31°07' E 121°28'0 0.0
2015-Jan-19 12:31N 31°07' E 121°28'0 0.0
2015-Jan-19 11:33N 31°07' E 121°28'0 0.0
2015-Jan-19 10:33N 31°07' E 121°28'0 0.0
2015-Jan-19 09:33N 31°07' E 121°28'0 0.0
2015-Jan-19 08:33N 31°07' E 121°28'0 0.0
2015-Jan-19 07:33N 31°07' E 121°28'0 0.0
2015-Jan-19 06:33N 31°07' E 121°28'0 0.0
2015-Jan-19 05:33N 31°07' E 121°28'0 0.0
2015-Jan-19 04:33N 31°07' E 121°28'0 0.0
2015-Jan-19 03:33N 31°07' E 121°28'0 0.0
2015-Jan-19 02:30N 31°07' E 121°28'0 0.0
2015-Jan-19 01:33N 31°07' E 121°28'0 0.0
2015-Jan-19 00:33N 31°07' E 121°28'0 0.0
2015-Jan-18 23:30N 31°07' E 121°28'0 0.0
2015-Jan-18 22:33N 31°07' E 121°28'0 0.0
2015-Jan-18 21:30N 31°07' E 121°28'0 0.0
2015-Jan-18 20:33N 31°07' E 121°28'0 0.0
2015-Jan-18 19:33N 31°07' E 121°28'0 0.0
2015-Jan-18 18:33N 31°07' E 121°28'0 0.0
2015-Jan-18 17:31N 31°07' E 121°28'0 0.0
2015-Jan-18 16:31N 31°07' E 121°28'0 0.0
2015-Jan-18 15:28N 31°07' E 121°28'0 0.0
2015-Jan-18 14:31N 31°07' E 121°28'0 0.0
2015-Jan-18 13:31N 31°07' E 121°28'0 0.0
2015-Jan-18 12:31N 31°07' E 121°28'0 0.0
2015-Jan-18 11:28N 31°07' E 121°28'0 0.0
2015-Jan-18 10:28N 31°07' E 121°28'0 0.0
2015-Jan-18 09:22N 31°07' E 121°28'0 0.0
2015-Jan-18 08:28N 31°07' E 121°28'0 0.0
2015-Jan-18 07:10N 31°07' E 121°28'0 0.0
2015-Jan-18 06:28N 31°07' E 121°28'0 0.0
2015-Jan-18 05:28N 31°07' E 121°28'0 0.0
2015-Jan-18 04:28N 31°07' E 121°28'0 0.0
2015-Jan-18 03:28N 31°07' E 121°28'0 0.0
2015-Jan-18 02:10N 31°07' E 121°28'0 0.0
2015-Jan-18 00:31N 31°07' E 121°28'0 0.0
2015-Jan-17 23:31N 31°07' E 121°28'0 0.0
2015-Jan-17 22:31N 31°07' E 121°28'0 0.0
2015-Jan-17 21:31N 31°07' E 121°28'0 0.0
2015-Jan-17 20:31N 31°07' E 121°28'0 0.0
2015-Jan-17 19:31N 31°07' E 121°28'0 0.0
2015-Jan-17 18:31N 31°07' E 121°28'0 0.0
2015-Jan-17 17:31N 31°07' E 121°28'0 0.0
2015-Jan-17 16:31N 31°07' E 121°28'0 0.0
2015-Jan-17 15:28N 31°07' E 121°28'0 0.0
2015-Jan-17 14:25N 31°07' E 121°28'0 0.0
2015-Jan-17 13:31N 31°07' E 121°28'0 0.0
2015-Jan-17 12:31N 31°07' E 121°28'0 0.0
2015-Jan-17 11:31N 31°07' E 121°28'  

Dump ship's entire track history